sensor_id;sensor_type;location;lat;lon;timestamp;temperature;humidity
27266;DHT22;14766;51.380;13.762;2024-03-23T00:52:35;13.70;68.10
27266;DHT22;14766;51.380;13.762;2024-03-23T00:55:01;13.70;68.30
27266;DHT22;14766;51.380;13.762;2024-03-23T00:57:28;13.70;68.40
27266;DHT22;14766;51.380;13.762;2024-03-23T00:59:55;13.70;68.50
27266;DHT22;14766;51.380;13.762;2024-03-23T01:02:21;13.70;68.60
27266;DHT22;14766;51.380;13.762;2024-03-23T01:04:48;13.80;68.70
27266;DHT22;14766;51.380;13.762;2024-03-23T01:07:16;13.80;68.70
27266;DHT22;14766;51.380;13.762;2024-03-23T01:09:42;13.80;68.80
27266;DHT22;14766;51.380;13.762;2024-03-23T01:12:08;13.80;68.80
27266;DHT22;14766;51.380;13.762;2024-03-23T01:14:34;13.80;69.00
27266;DHT22;14766;51.380;13.762;2024-03-23T01:17:02;13.90;69.00
27266;DHT22;14766;51.380;13.762;2024-03-23T01:19:28;13.90;69.10
27266;DHT22;14766;51.380;13.762;2024-03-23T01:21:54;13.90;69.10
27266;DHT22;14766;51.380;13.762;2024-03-23T01:24:20;13.90;69.20
27266;DHT22;14766;51.380;13.762;2024-03-23T01:26:46;13.90;69.10
27266;DHT22;14766;51.380;13.762;2024-03-23T01:29:12;13.90;69.10
27266;DHT22;14766;51.380;13.762;2024-03-23T01:31:39;13.90;69.40
27266;DHT22;14766;51.380;13.762;2024-03-23T01:34:05;14.00;69.50
27266;DHT22;14766;51.380;13.762;2024-03-23T01:36:31;14.00;70.00
27266;DHT22;14766;51.380;13.762;2024-03-23T01:38:57;14.00;69.70
27266;DHT22;14766;51.380;13.762;2024-03-23T01:41:24;14.00;69.70
27266;DHT22;14766;51.380;13.762;2024-03-23T01:43:50;14.00;69.70
27266;DHT22;14766;51.380;13.762;2024-03-23T01:46:17;14.00;69.50
27266;DHT22;14766;51.380;13.762;2024-03-23T01:48:44;14.00;69.60
27266;DHT22;14766;51.380;13.762;2024-03-23T01:51:11;14.00;69.70
27266;DHT22;14766;51.380;13.762;2024-03-23T01:53:38;14.00;69.70
27266;DHT22;14766;51.380;13.762;2024-03-23T01:56:04;14.00;69.70
27266;DHT22;14766;51.380;13.762;2024-03-23T01:58:31;14.00;69.70
27266;DHT22;14766;51.380;13.762;2024-03-23T02:01:00;14.00;69.60
27266;DHT22;14766;51.380;13.762;2024-03-23T02:03:27;14.00;70.50
27266;DHT22;14766;51.380;13.762;2024-03-23T02:05:54;14.10;69.80
27266;DHT22;14766;51.380;13.762;2024-03-23T02:08:23;14.00;69.60
27266;DHT22;14766;51.380;13.762;2024-03-23T02:10:50;14.00;69.60
27266;DHT22;14766;51.380;13.762;2024-03-23T02:13:17;14.00;69.60
27266;DHT22;14766;51.380;13.762;2024-03-23T02:15:43;14.00;69.60
27266;DHT22;14766;51.380;13.762;2024-03-23T02:18:11;14.00;69.50
27266;DHT22;14766;51.380;13.762;2024-03-23T02:20:37;14.00;69.50
27266;DHT22;14766;51.380;13.762;2024-03-23T02:23:10;14.00;69.40
27266;DHT22;14766;51.380;13.762;2024-03-23T02:25:39;14.00;69.50
27266;DHT22;14766;51.380;13.762;2024-03-23T02:28:05;14.00;69.40
27266;DHT22;14766;51.380;13.762;2024-03-23T02:30:31;13.90;69.20
27266;DHT22;14766;51.380;13.762;2024-03-23T02:32:57;13.90;69.10
27266;DHT22;14766;51.380;13.762;2024-03-23T02:35:23;13.90;69.10
27266;DHT22;14766;51.380;13.762;2024-03-23T02:37:49;13.90;69.20
27266;DHT22;14766;51.380;13.762;2024-03-23T02:40:16;13.80;69.20
27266;DHT22;14766;51.380;13.762;2024-03-23T02:42:42;13.80;69.10
27266;DHT22;14766;51.380;13.762;2024-03-23T02:45:08;13.80;69.20
27266;DHT22;14766;51.380;13.762;2024-03-23T02:47:34;13.80;69.20
27266;DHT22;14766;51.380;13.762;2024-03-23T02:50:00;13.80;69.20
27266;DHT22;14766;51.380;13.762;2024-03-23T02:52:27;13.70;69.20
27266;DHT22;14766;51.380;13.762;2024-03-23T02:54:53;13.70;69.10
27266;DHT22;14766;51.380;13.762;2024-03-23T02:57:19;13.70;69.30
27266;DHT22;14766;51.380;13.762;2024-03-23T02:59:46;13.70;69.30
27266;DHT22;14766;51.380;13.762;2024-03-23T03:02:13;13.70;69.30
27266;DHT22;14766;51.380;13.762;2024-03-23T03:04:39;13.60;69.30
27266;DHT22;14766;51.380;13.762;2024-03-23T03:07:06;13.70;69.40
27266;DHT22;14766;51.380;13.762;2024-03-23T03:09:32;13.60;69.50
27266;DHT22;14766;51.380;13.762;2024-03-23T03:12:03;13.70;69.60
27266;DHT22;14766;51.380;13.762;2024-03-23T03:14:29;13.60;69.50
27266;DHT22;14766;51.380;13.762;2024-03-23T03:16:56;13.60;69.50
27266;DHT22;14766;51.380;13.762;2024-03-23T03:19:22;13.60;69.60
27266;DHT22;14766;51.380;13.762;2024-03-23T03:21:48;13.60;69.60
27266;DHT22;14766;51.380;13.762;2024-03-23T03:24:14;13.60;69.50
27266;DHT22;14766;51.380;13.762;2024-03-23T03:26:42;13.60;69.50
27266;DHT22;14766;51.380;13.762;2024-03-23T03:29:08;13.60;69.50
27266;DHT22;14766;51.380;13.762;2024-03-23T03:31:34;13.60;69.50
27266;DHT22;14766;51.380;13.762;2024-03-23T03:34:00;13.60;69.60
27266;DHT22;14766;51.380;13.762;2024-03-23T03:36:26;13.60;69.60
27266;DHT22;14766;51.380;13.762;2024-03-23T03:38:52;13.60;69.60
27266;DHT22;14766;51.380;13.762;2024-03-23T03:41:19;13.60;69.70
27266;DHT22;14766;51.380;13.762;2024-03-23T03:43:45;13.60;69.60
27266;DHT22;14766;51.380;13.762;2024-03-23T03:46:11;13.60;69.50
27266;DHT22;14766;51.380;13.762;2024-03-23T03:48:37;13.60;69.60
27266;DHT22;14766;51.380;13.762;2024-03-23T03:51:04;13.60;69.70
27266;DHT22;14766;51.380;13.762;2024-03-23T03:53:30;13.60;69.80
27266;DHT22;14766;51.380;13.762;2024-03-23T03:56:00;13.60;69.50
27266;DHT22;14766;51.380;13.762;2024-03-23T03:58:27;13.60;69.40
27266;DHT22;14766;51.380;13.762;2024-03-23T04:00:53;13.60;69.50
27266;DHT22;14766;51.380;13.762;2024-03-23T04:03:20;13.60;69.90
27266;DHT22;14766;51.380;13.762;2024-03-23T04:05:51;13.60;69.50
27266;DHT22;14766;51.380;13.762;2024-03-23T04:08:17;13.60;69.60
27266;DHT22;14766;51.380;13.762;2024-03-23T04:10:43;13.60;69.80
27266;DHT22;14766;51.380;13.762;2024-03-23T04:13:09;13.60;69.90
27266;DHT22;14766;51.380;13.762;2024-03-23T04:15:36;13.60;69.90
27266;DHT22;14766;51.380;13.762;2024-03-23T04:18:02;13.60;69.90
27266;DHT22;14766;51.380;13.762;2024-03-23T04:20:28;13.60;70.00
27266;DHT22;14766;51.380;13.762;2024-03-23T04:22:54;13.60;70.10
27266;DHT22;14766;51.380;13.762;2024-03-23T04:25:20;13.50;70.10
27266;DHT22;14766;51.380;13.762;2024-03-23T04:27:46;13.50;70.10
27266;DHT22;14766;51.380;13.762;2024-03-23T04:30:12;13.50;70.10
27266;DHT22;14766;51.380;13.762;2024-03-23T04:32:38;13.60;70.20
27266;DHT22;14766;51.380;13.762;2024-03-23T04:35:05;13.50;70.40
27266;DHT22;14766;51.380;13.762;2024-03-23T04:37:38;13.50;70.30
27266;DHT22;14766;51.380;13.762;2024-03-23T04:40:07;13.50;70.10
27266;DHT22;14766;51.380;13.762;2024-03-23T04:42:33;13.50;70.20
27266;DHT22;14766;51.380;13.762;2024-03-23T04:45:00;13.50;70.50
27266;DHT22;14766;51.380;13.762;2024-03-23T04:47:26;13.50;70.50
27266;DHT22;14766;51.380;13.762;2024-03-23T04:49:53;13.50;70.50
27266;DHT22;14766;51.380;13.762;2024-03-23T04:52:19;13.50;70.60
27266;DHT22;14766;51.380;13.762;2024-03-23T04:54:45;13.50;70.60
27266;DHT22;14766;51.380;13.762;2024-03-23T04:57:11;13.50;70.60
27266;DHT22;14766;51.380;13.762;2024-03-23T04:59:38;13.50;70.50
27266;DHT22;14766;51.380;13.762;2024-03-23T05:02:05;13.50;70.60
27266;DHT22;14766;51.380;13.762;2024-03-23T05:04:32;13.50;70.60
27266;DHT22;14766;51.380;13.762;2024-03-23T05:06:59;13.50;70.60
27266;DHT22;14766;51.380;13.762;2024-03-23T05:09:25;13.50;70.70
27266;DHT22;14766;51.380;13.762;2024-03-23T05:11:56;13.50;71.70
27266;DHT22;14766;51.380;13.762;2024-03-23T05:14:22;13.50;70.80
27266;DHT22;14766;51.380;13.762;2024-03-23T05:16:48;13.50;70.80
27266;DHT22;14766;51.380;13.762;2024-03-23T05:19:14;13.60;70.70
27266;DHT22;14766;51.380;13.762;2024-03-23T05:21:40;13.50;69.90
27266;DHT22;14766;51.380;13.762;2024-03-23T05:24:06;13.50;69.50
27266;DHT22;14766;51.380;13.762;2024-03-23T05:26:33;13.50;69.00
27266;DHT22;14766;51.380;13.762;2024-03-23T05:28:59;13.40;68.50
27266;DHT22;14766;51.380;13.762;2024-03-23T05:31:27;13.40;68.30
27266;DHT22;14766;51.380;13.762;2024-03-23T05:33:53;13.30;68.00
27266;DHT22;14766;51.380;13.762;2024-03-23T05:36:20;13.30;68.20
27266;DHT22;14766;51.380;13.762;2024-03-23T05:38:47;13.20;68.50
27266;DHT22;14766;51.380;13.762;2024-03-23T05:41:13;13.20;68.70
27266;DHT22;14766;51.380;13.762;2024-03-23T05:43:39;13.10;68.80
27266;DHT22;14766;51.380;13.762;2024-03-23T05:46:05;13.10;69.10
27266;DHT22;14766;51.380;13.762;2024-03-23T05:48:32;13.10;68.90
27266;DHT22;14766;51.380;13.762;2024-03-23T05:51:00;13.10;68.90
27266;DHT22;14766;51.380;13.762;2024-03-23T05:53:27;13.10;69.10
27266;DHT22;14766;51.380;13.762;2024-03-23T05:56:03;13.00;68.80
27266;DHT22;14766;51.380;13.762;2024-03-23T05:58:30;13.00;68.50
27266;DHT22;14766;51.380;13.762;2024-03-23T06:00:58;13.00;68.50
27266;DHT22;14766;51.380;13.762;2024-03-23T06:03:30;12.90;68.40
27266;DHT22;14766;51.380;13.762;2024-03-23T06:05:57;12.90;68.50
27266;DHT22;14766;51.380;13.762;2024-03-23T06:08:23;12.90;68.80
27266;DHT22;14766;51.380;13.762;2024-03-23T06:10:50;12.90;68.80
27266;DHT22;14766;51.380;13.762;2024-03-23T06:13:16;12.90;68.90
27266;DHT22;14766;51.380;13.762;2024-03-23T06:15:44;12.90;68.80
27266;DHT22;14766;51.380;13.762;2024-03-23T06:18:12;12.80;68.80
27266;DHT22;14766;51.380;13.762;2024-03-23T06:20:38;12.80;68.80
27266;DHT22;14766;51.380;13.762;2024-03-23T06:23:05;12.80;68.80
27266;DHT22;14766;51.380;13.762;2024-03-23T06:25:31;12.80;69.00
27266;DHT22;14766;51.380;13.762;2024-03-23T06:27:57;12.80;69.00
27266;DHT22;14766;51.380;13.762;2024-03-23T06:30:29;12.80;69.20
27266;DHT22;14766;51.380;13.762;2024-03-23T06:32:56;12.80;69.10
27266;DHT22;14766;51.380;13.762;2024-03-23T06:35:22;12.80;69.10
27266;DHT22;14766;51.380;13.762;2024-03-23T06:37:49;12.80;69.20
27266;DHT22;14766;51.380;13.762;2024-03-23T06:40:15;12.90;69.30
27266;DHT22;14766;51.380;13.762;2024-03-23T06:42:42;12.90;69.40
27266;DHT22;14766;51.380;13.762;2024-03-23T06:45:09;12.90;69.60
27266;DHT22;14766;51.380;13.762;2024-03-23T06:47:35;12.90;69.50
27266;DHT22;14766;51.380;13.762;2024-03-23T06:50:03;12.90;69.50
27266;DHT22;14766;51.380;13.762;2024-03-23T06:52:30;13.00;69.60
27266;DHT22;14766;51.380;13.762;2024-03-23T06:54:57;13.00;69.70
27266;DHT22;14766;51.380;13.762;2024-03-23T06:57:23;13.00;69.70
27266;DHT22;14766;51.380;13.762;2024-03-23T06:59:49;13.00;69.70
27266;DHT22;14766;51.380;13.762;2024-03-23T07:02:16;13.00;69.40
27266;DHT22;14766;51.380;13.762;2024-03-23T07:04:42;13.00;69.40
27266;DHT22;14766;51.380;13.762;2024-03-23T07:07:08;13.00;69.30
27266;DHT22;14766;51.380;13.762;2024-03-23T07:09:34;13.00;69.30
27266;DHT22;14766;51.380;13.762;2024-03-23T07:12:00;13.10;69.60
27266;DHT22;14766;51.380;13.762;2024-03-23T07:14:26;13.00;69.60
27266;DHT22;14766;51.380;13.762;2024-03-23T07:16:52;13.00;69.60
27266;DHT22;14766;51.380;13.762;2024-03-23T07:19:18;13.00;69.50
27266;DHT22;14766;51.380;13.762;2024-03-23T07:21:45;13.00;69.50
27266;DHT22;14766;51.380;13.762;2024-03-23T07:24:12;13.00;69.40
27266;DHT22;14766;51.380;13.762;2024-03-23T07:26:38;13.00;69.50
27266;DHT22;14766;51.380;13.762;2024-03-23T07:29:06;13.00;69.50
27266;DHT22;14766;51.380;13.762;2024-03-23T07:31:32;13.00;69.70
27266;DHT22;14766;51.380;13.762;2024-03-23T07:33:59;13.00;69.60
27266;DHT22;14766;51.380;13.762;2024-03-23T07:36:25;13.00;69.40
27266;DHT22;14766;51.380;13.762;2024-03-23T07:38:51;13.00;69.40
27266;DHT22;14766;51.380;13.762;2024-03-23T07:41:19;13.00;69.30
27266;DHT22;14766;51.380;13.762;2024-03-23T07:43:46;12.90;69.30
27266;DHT22;14766;51.380;13.762;2024-03-23T07:46:14;12.90;69.40
27266;DHT22;14766;51.380;13.762;2024-03-23T07:48:40;12.90;69.20
27266;DHT22;14766;51.380;13.762;2024-03-23T07:51:11;12.90;69.40
27266;DHT22;14766;51.380;13.762;2024-03-23T07:53:38;12.90;69.80
27266;DHT22;14766;51.380;13.762;2024-03-23T07:56:08;12.80;70.10
27266;DHT22;14766;51.380;13.762;2024-03-23T07:58:38;12.80;70.60
27266;DHT22;14766;51.380;13.762;2024-03-23T08:01:10;12.80;71.20
27266;DHT22;14766;51.380;13.762;2024-03-23T08:03:41;12.70;71.40
27266;DHT22;14766;51.380;13.762;2024-03-23T08:08:34;12.70;71.70
27266;DHT22;14766;51.380;13.762;2024-03-23T08:11:01;12.70;71.80
27266;DHT22;14766;51.380;13.762;2024-03-23T08:13:27;12.80;72.20
27266;DHT22;14766;51.380;13.762;2024-03-23T08:16:01;12.70;72.10
27266;DHT22;14766;51.380;13.762;2024-03-23T08:18:28;12.70;72.10
27266;DHT22;14766;51.380;13.762;2024-03-23T08:21:04;12.80;71.90
27266;DHT22;14766;51.380;13.762;2024-03-23T08:23:33;12.80;72.00
27266;DHT22;14766;51.380;13.762;2024-03-23T08:26:00;12.90;72.10
27266;DHT22;14766;51.380;13.762;2024-03-23T08:28:28;12.80;72.40
27266;DHT22;14766;51.380;13.762;2024-03-23T08:30:55;12.90;72.90
27266;DHT22;14766;51.380;13.762;2024-03-23T08:33:22;12.90;73.30
27266;DHT22;14766;51.380;13.762;2024-03-23T08:35:56;13.00;73.00
27266;DHT22;14766;51.380;13.762;2024-03-23T08:38:26;13.10;72.90
27266;DHT22;14766;51.380;13.762;2024-03-23T08:41:09;13.10;72.90
27266;DHT22;14766;51.380;13.762;2024-03-23T08:43:40;13.20;73.00
27266;DHT22;14766;51.380;13.762;2024-03-23T08:46:16;13.20;72.90
27266;DHT22;14766;51.380;13.762;2024-03-23T08:48:44;13.30;73.00
27266;DHT22;14766;51.380;13.762;2024-03-23T08:51:13;13.30;73.00
27266;DHT22;14766;51.380;13.762;2024-03-23T08:53:40;13.40;72.70
27266;DHT22;14766;51.380;13.762;2024-03-23T08:56:07;13.40;72.40
27266;DHT22;14766;51.380;13.762;2024-03-23T08:58:34;13.40;72.40
27266;DHT22;14766;51.380;13.762;2024-03-23T09:01:19;13.40;72.20
27266;DHT22;14766;51.380;13.762;2024-03-23T09:03:45;13.50;72.50
27266;DHT22;14766;51.380;13.762;2024-03-23T09:06:13;13.50;72.20
27266;DHT22;14766;51.380;13.762;2024-03-23T09:08:40;13.50;72.30
27266;DHT22;14766;51.380;13.762;2024-03-23T09:11:09;13.50;72.30
27266;DHT22;14766;51.380;13.762;2024-03-23T09:13:37;13.50;72.30
27266;DHT22;14766;51.380;13.762;2024-03-23T09:16:04;13.60;72.30
27266;DHT22;14766;51.380;13.762;2024-03-23T09:18:35;13.60;72.30
27266;DHT22;14766;51.380;13.762;2024-03-23T09:21:11;13.60;72.30
27266;DHT22;14766;51.380;13.762;2024-03-23T09:23:37;13.60;72.40
27266;DHT22;14766;51.380;13.762;2024-03-23T09:26:03;13.60;72.20
27266;DHT22;14766;51.380;13.762;2024-03-23T09:28:30;13.60;72.40
27266;DHT22;14766;51.380;13.762;2024-03-23T09:31:03;13.60;72.30
27266;DHT22;14766;51.380;13.762;2024-03-23T09:33:30;13.60;72.50
27266;DHT22;14766;51.380;13.762;2024-03-23T09:35:56;13.70;72.90
27266;DHT22;14766;51.380;13.762;2024-03-23T09:38:27;13.60;73.20
27266;DHT22;14766;51.380;13.762;2024-03-23T09:40:53;13.60;71.90
27266;DHT22;14766;51.380;13.762;2024-03-23T09:43:19;13.40;70.60
27266;DHT22;14766;51.380;13.762;2024-03-23T09:45:46;13.40;70.60
27266;DHT22;14766;51.380;13.762;2024-03-23T09:48:12;13.20;69.90
27266;DHT22;14766;51.380;13.762;2024-03-23T09:50:43;13.10;69.80
27266;DHT22;14766;51.380;13.762;2024-03-23T09:53:13;13.00;69.50
27266;DHT22;14766;51.380;13.762;2024-03-23T09:55:40;12.90;68.80
27266;DHT22;14766;51.380;13.762;2024-03-23T09:58:08;12.80;68.90
27266;DHT22;14766;51.380;13.762;2024-03-23T10:00:37;12.60;68.90
27266;DHT22;14766;51.380;13.762;2024-03-23T10:03:04;12.50;68.80
27266;DHT22;14766;51.380;13.762;2024-03-23T10:05:33;12.40;69.40
27266;DHT22;14766;51.380;13.762;2024-03-23T10:10:42;12.20;67.60
27266;DHT22;14766;51.380;13.762;2024-03-23T10:13:09;12.20;66.60
27266;DHT22;14766;51.380;13.762;2024-03-23T10:15:36;12.00;65.40
27266;DHT22;14766;51.380;13.762;2024-03-23T10:18:19;11.90;65.30
27266;DHT22;14766;51.380;13.762;2024-03-23T10:23:17;11.60;65.50
27266;DHT22;14766;51.380;13.762;2024-03-23T10:25:44;11.50;66.20
27266;DHT22;14766;51.380;13.762;2024-03-23T10:28:11;11.40;66.40
27266;DHT22;14766;51.380;13.762;2024-03-23T10:30:38;11.30;67.20
27266;DHT22;14766;51.380;13.762;2024-03-23T10:33:11;11.20;67.70
27266;DHT22;14766;51.380;13.762;2024-03-23T10:35:39;11.10;67.90
27266;DHT22;14766;51.380;13.762;2024-03-23T10:38:06;11.10;68.40
27266;DHT22;14766;51.380;13.762;2024-03-23T10:40:35;11.10;68.20
27266;DHT22;14766;51.380;13.762;2024-03-23T10:43:04;11.00;68.00
27266;DHT22;14766;51.380;13.762;2024-03-23T10:45:33;11.00;68.00
27266;DHT22;14766;51.380;13.762;2024-03-23T10:47:59;10.90;67.60
27266;DHT22;14766;51.380;13.762;2024-03-23T10:50:26;10.90;67.80
27266;DHT22;14766;51.380;13.762;2024-03-23T10:52:53;10.90;68.00
27266;DHT22;14766;51.380;13.762;2024-03-23T10:55:19;10.80;67.50
27266;DHT22;14766;51.380;13.762;2024-03-23T10:57:52;10.80;67.70
27266;DHT22;14766;51.380;13.762;2024-03-23T11:00:19;10.80;67.80
27266;DHT22;14766;51.380;13.762;2024-03-23T11:02:50;10.70;67.50
27266;DHT22;14766;51.380;13.762;2024-03-23T11:05:29;10.70;68.50
27266;DHT22;14766;51.380;13.762;2024-03-23T11:07:56;10.70;67.80
27266;DHT22;14766;51.380;13.762;2024-03-23T11:10:30;10.70;67.80
27266;DHT22;14766;51.380;13.762;2024-03-23T11:12:57;10.60;67.50
27266;DHT22;14766;51.380;13.762;2024-03-23T11:15:23;10.60;67.70
27266;DHT22;14766;51.380;13.762;2024-03-23T11:20:32;10.60;68.60
27266;DHT22;14766;51.380;13.762;2024-03-23T11:22:59;10.50;68.50
27266;DHT22;14766;51.380;13.762;2024-03-23T11:25:27;10.50;68.50
27266;DHT22;14766;51.380;13.762;2024-03-23T11:27:55;10.40;68.30
27266;DHT22;14766;51.380;13.762;2024-03-23T11:30:27;10.50;68.50
27266;DHT22;14766;51.380;13.762;2024-03-23T11:32:57;10.50;68.30
27266;DHT22;14766;51.380;13.762;2024-03-23T11:35:34;10.40;68.40
27266;DHT22;14766;51.380;13.762;2024-03-23T11:38:14;10.40;68.80
27266;DHT22;14766;51.380;13.762;2024-03-23T11:40:42;10.40;69.00
27266;DHT22;14766;51.380;13.762;2024-03-23T11:43:15;10.40;69.00
27266;DHT22;14766;51.380;13.762;2024-03-23T11:48:15;10.40;69.00
27266;DHT22;14766;51.380;13.762;2024-03-23T11:50:43;10.30;68.80
27266;DHT22;14766;51.380;13.762;2024-03-23T11:53:15;10.30;69.10
27266;DHT22;14766;51.380;13.762;2024-03-23T11:55:55;10.30;69.70
27266;DHT22;14766;51.380;13.762;2024-03-23T11:58:25;10.30;69.60
27266;DHT22;14766;51.380;13.762;2024-03-23T12:00:58;10.30;69.70
27266;DHT22;14766;51.380;13.762;2024-03-23T12:03:26;10.30;69.70
27266;DHT22;14766;51.380;13.762;2024-03-23T12:05:55;10.20;70.10
27266;DHT22;14766;51.380;13.762;2024-03-23T12:08:24;10.20;70.40
27266;DHT22;14766;51.380;13.762;2024-03-23T12:10:53;10.20;70.30
27266;DHT22;14766;51.380;13.762;2024-03-23T12:13:30;10.20;70.40
27266;DHT22;14766;51.380;13.762;2024-03-23T12:16:12;10.20;70.60
27266;DHT22;14766;51.380;13.762;2024-03-23T12:18:40;10.20;71.10
27266;DHT22;14766;51.380;13.762;2024-03-23T12:21:06;10.20;71.10
27266;DHT22;14766;51.380;13.762;2024-03-23T12:23:34;10.30;71.20
27266;DHT22;14766;51.380;13.762;2024-03-23T12:26:00;10.30;70.50
27266;DHT22;14766;51.380;13.762;2024-03-23T12:28:28;10.30;71.00
27266;DHT22;14766;51.380;13.762;2024-03-23T12:30:54;10.30;70.60
27266;DHT22;14766;51.380;13.762;2024-03-23T12:33:20;10.30;70.50
27266;DHT22;14766;51.380;13.762;2024-03-23T12:35:50;10.30;71.00
27266;DHT22;14766;51.380;13.762;2024-03-23T12:38:17;10.30;71.50
27266;DHT22;14766;51.380;13.762;2024-03-23T12:40:47;10.40;71.70
27266;DHT22;14766;51.380;13.762;2024-03-23T12:43:16;10.40;72.20
27266;DHT22;14766;51.380;13.762;2024-03-23T12:45:47;10.50;71.60
27266;DHT22;14766;51.380;13.762;2024-03-23T12:48:13;10.60;71.30
27266;DHT22;14766;51.380;13.762;2024-03-23T12:50:40;10.70;70.40
27266;DHT22;14766;51.380;13.762;2024-03-23T12:53:06;10.80;71.00
27266;DHT22;14766;51.380;13.762;2024-03-23T12:55:34;10.90;70.10
27266;DHT22;14766;51.380;13.762;2024-03-23T12:58:02;11.00;68.50
27266;DHT22;14766;51.380;13.762;2024-03-23T13:00:28;11.10;68.40
27266;DHT22;14766;51.380;13.762;2024-03-23T13:02:55;11.20;68.50
27266;DHT22;14766;51.380;13.762;2024-03-23T13:05:21;11.20;68.10
27266;DHT22;14766;51.380;13.762;2024-03-23T13:07:47;11.30;67.00
27266;DHT22;14766;51.380;13.762;2024-03-23T13:10:13;11.40;66.60
27266;DHT22;14766;51.380;13.762;2024-03-23T13:12:40;11.40;67.50
27266;DHT22;14766;51.380;13.762;2024-03-23T13:15:08;11.50;67.90
27266;DHT22;14766;51.380;13.762;2024-03-23T13:17:34;11.60;67.90
27266;DHT22;14766;51.380;13.762;2024-03-23T13:20:00;11.60;67.00
27266;DHT22;14766;51.380;13.762;2024-03-23T13:22:27;11.70;66.90
27266;DHT22;14766;51.380;13.762;2024-03-23T13:24:53;11.80;67.20
27266;DHT22;14766;51.380;13.762;2024-03-23T13:27:19;11.80;66.20
27266;DHT22;14766;51.380;13.762;2024-03-23T13:29:46;11.90;65.30
27266;DHT22;14766;51.380;13.762;2024-03-23T13:32:12;12.00;65.70
27266;DHT22;14766;51.380;13.762;2024-03-23T13:34:39;12.00;64.10
27266;DHT22;14766;51.380;13.762;2024-03-23T13:37:06;12.10;64.20
27266;DHT22;14766;51.380;13.762;2024-03-23T13:39:33;12.20;63.70
27266;DHT22;14766;51.380;13.762;2024-03-23T13:41:59;12.20;61.90
27266;DHT22;14766;51.380;13.762;2024-03-23T13:44:25;12.30;61.40
27266;DHT22;14766;51.380;13.762;2024-03-23T13:46:51;12.30;61.30
27266;DHT22;14766;51.380;13.762;2024-03-23T13:49:31;12.30;60.20
27266;DHT22;14766;51.380;13.762;2024-03-23T13:52:00;12.20;60.40
27266;DHT22;14766;51.380;13.762;2024-03-23T13:54:26;12.30;60.30
27266;DHT22;14766;51.380;13.762;2024-03-23T13:56:54;12.30;60.70
27266;DHT22;14766;51.380;13.762;2024-03-23T13:59:21;12.30;59.10
27266;DHT22;14766;51.380;13.762;2024-03-23T14:01:50;12.20;58.80
27266;DHT22;14766;51.380;13.762;2024-03-23T14:04:17;12.20;59.70
27266;DHT22;14766;51.380;13.762;2024-03-23T14:06:43;12.30;61.30
27266;DHT22;14766;51.380;13.762;2024-03-23T14:09:14;12.30;60.50
27266;DHT22;14766;51.380;13.762;2024-03-23T14:11:45;12.30;59.70
27266;DHT22;14766;51.380;13.762;2024-03-23T14:14:12;12.40;60.00
27266;DHT22;14766;51.380;13.762;2024-03-23T14:16:38;12.40;59.20
27266;DHT22;14766;51.380;13.762;2024-03-23T14:19:04;12.40;57.50
27266;DHT22;14766;51.380;13.762;2024-03-23T14:21:31;12.40;57.00
27266;DHT22;14766;51.380;13.762;2024-03-23T14:23:58;12.40;58.10
27266;DHT22;14766;51.380;13.762;2024-03-23T14:26:27;12.40;58.70
27266;DHT22;14766;51.380;13.762;2024-03-23T14:28:53;12.40;57.80
27266;DHT22;14766;51.380;13.762;2024-03-23T14:31:19;12.30;58.50
27266;DHT22;14766;51.380;13.762;2024-03-23T14:33:45;12.30;58.80
27266;DHT22;14766;51.380;13.762;2024-03-23T14:36:13;12.30;58.00
27266;DHT22;14766;51.380;13.762;2024-03-23T14:38:41;12.30;57.70
27266;DHT22;14766;51.380;13.762;2024-03-23T14:41:07;12.30;57.40
27266;DHT22;14766;51.380;13.762;2024-03-23T14:43:34;12.30;56.40
27266;DHT22;14766;51.380;13.762;2024-03-23T14:48:37;12.20;55.90
27266;DHT22;14766;51.380;13.762;2024-03-23T14:51:03;12.20;56.10
27266;DHT22;14766;51.380;13.762;2024-03-23T14:53:35;12.20;56.00
27266;DHT22;14766;51.380;13.762;2024-03-23T14:56:02;12.20;56.30
27266;DHT22;14766;51.380;13.762;2024-03-23T14:58:29;12.20;57.00
27266;DHT22;14766;51.380;13.762;2024-03-23T15:01:06;12.20;55.50
27266;DHT22;14766;51.380;13.762;2024-03-23T15:03:39;12.20;55.90
27266;DHT22;14766;51.380;13.762;2024-03-23T15:06:07;12.20;56.40
27266;DHT22;14766;51.380;13.762;2024-03-23T15:08:35;12.20;55.50
27266;DHT22;14766;51.380;13.762;2024-03-23T15:11:02;12.30;56.10
27266;DHT22;14766;51.380;13.762;2024-03-23T15:13:38;12.30;55.70
27266;DHT22;14766;51.380;13.762;2024-03-23T15:16:05;12.30;55.80
27266;DHT22;14766;51.380;13.762;2024-03-23T15:18:35;12.30;56.00
27266;DHT22;14766;51.380;13.762;2024-03-23T15:21:28;12.40;53.80
27266;DHT22;14766;51.380;13.762;2024-03-23T15:23:55;12.40;54.30
27266;DHT22;14766;51.380;13.762;2024-03-23T15:26:22;12.40;55.40
27266;DHT22;14766;51.380;13.762;2024-03-23T15:28:49;12.40;55.00
27266;DHT22;14766;51.380;13.762;2024-03-23T15:31:25;12.50;55.10
27266;DHT22;14766;51.380;13.762;2024-03-23T15:33:51;12.50;55.00
27266;DHT22;14766;51.380;13.762;2024-03-23T15:36:18;12.50;55.50
27266;DHT22;14766;51.380;13.762;2024-03-23T15:38:44;12.50;57.10
27266;DHT22;14766;51.380;13.762;2024-03-23T15:41:13;12.40;58.60
27266;DHT22;14766;51.380;13.762;2024-03-23T15:43:39;12.30;59.40
27266;DHT22;14766;51.380;13.762;2024-03-23T15:46:05;12.30;60.00
27266;DHT22;14766;51.380;13.762;2024-03-23T15:48:32;12.10;60.20
27266;DHT22;14766;51.380;13.762;2024-03-23T15:50:59;12.00;60.60
27266;DHT22;14766;51.380;13.762;2024-03-23T15:53:26;11.90;60.70
27266;DHT22;14766;51.380;13.762;2024-03-23T15:56:02;11.70;60.50
27266;DHT22;14766;51.380;13.762;2024-03-23T15:58:30;11.60;61.50
27266;DHT22;14766;51.380;13.762;2024-03-23T16:00:57;11.40;61.80
27266;DHT22;14766;51.380;13.762;2024-03-23T16:03:24;11.20;62.70
27266;DHT22;14766;51.380;13.762;2024-03-23T16:05:57;11.10;63.10
27266;DHT22;14766;51.380;13.762;2024-03-23T16:08:24;11.00;63.60
27266;DHT22;14766;51.380;13.762;2024-03-23T16:10:51;10.90;64.70
27266;DHT22;14766;51.380;13.762;2024-03-23T16:13:17;10.90;65.40
27266;DHT22;14766;51.380;13.762;2024-03-23T16:16:00;10.90;65.30
27266;DHT22;14766;51.380;13.762;2024-03-23T16:18:30;10.90;65.80
27266;DHT22;14766;51.380;13.762;2024-03-23T16:20:57;10.90;65.90
27266;DHT22;14766;51.380;13.762;2024-03-23T16:23:24;10.90;65.70
27266;DHT22;14766;51.380;13.762;2024-03-23T16:25:53;10.90;65.50